Time;durP1;ratioP1;P1;durP2;ratioP2;P2;SDS_P1;SDS_P2;PMS_P1;PMS_P2;Temp;Humidity;BMP_temperature;BMP_pressure;BME280_temperature;BME280_humidity;BME280_pressure;Samples;Min_cycle;Max_cycle;Signal;HPM_P1;HPM_P2
2023/04/03 00:00:32;;;;;;;4.00;0.90;;;11.60;99.90;;;;;;5052585;28;20105;-68
2023/04/03 00:02:58;;;;;;;8.05;1.20;;;11.60;99.90;;;;;;5052010;28;20020;-68
2023/04/03 00:05:25;;;;;;;9.15;1.67;;;11.50;99.90;;;;;;5051757;28;20176;-67
2023/04/03 00:07:51;;;;;;;8.57;1.40;;;11.50;99.90;;;;;;5051477;28;20059;-67
2023/04/03 00:10:17;;;;;;;7.15;1.20;;;11.50;99.90;;;;;;5051216;28;20033;-67
2023/04/03 00:12:43;;;;;;;6.83;1.00;;;11.60;99.90;;;;;;5051117;28;20131;-67
2023/04/03 00:15:09;;;;;;;5.78;1.20;;;11.60;99.90;;;;;;5051624;28;20103;-66
2023/04/03 00:17:35;;;;;;;10.95;1.20;;;11.60;99.90;;;;;;5050991;28;20102;-69
2023/04/03 00:20:03;;;;;;;10.20;1.52;;;11.50;99.90;;;;;;5050994;28;20021;-69
2023/04/03 00:22:29;;;;;;;4.65;1.02;;;11.60;99.90;;;;;;5050990;28;20029;-66
2023/04/03 00:24:55;;;;;;;7.80;1.40;;;11.60;99.90;;;;;;5050929;28;20459;-66
2023/04/03 00:27:22;;;;;;;8.70;1.40;;;11.60;99.90;;;;;;5051153;28;20299;-66
2023/04/03 00:29:48;;;;;;;8.57;1.00;;;11.70;99.90;;;;;;5050826;28;20033;-67
2023/04/03 00:32:14;;;;;;;5.00;0.90;;;11.70;99.90;;;;;;5050679;28;20017;-67
2023/04/03 00:34:40;;;;;;;7.47;1.00;;;11.60;99.90;;;;;;5032755;28;20104;-63
2023/04/03 00:37:06;;;;;;;4.55;1.13;;;11.60;99.90;;;;;;5050705;28;20500;-65
2023/04/03 00:39:33;;;;;;;8.45;1.08;;;11.60;99.90;;;;;;5050149;28;20068;-63
2023/04/03 00:42:00;;;;;;;8.55;0.90;;;11.60;99.90;;;;;;5050805;28;20090;-65
2023/04/03 00:44:34;;;;;;;7.68;0.98;;;11.60;99.90;;;;;;5050582;28;20017;-68
2023/04/03 00:47:03;;;;;;;7.55;1.33;;;11.70;99.90;;;;;;5050560;28;20060;-67
2023/04/03 00:49:30;;;;;;;8.05;1.10;;;11.70;99.90;;;;;;5050488;28;20029;-65
2023/04/03 00:51:57;;;;;;;5.00;0.95;;;11.70;99.90;;;;;;5050511;28;20020;-66
2023/04/03 00:54:23;;;;;;;4.80;0.98;;;11.70;99.90;;;;;;5050560;28;20021;-66
2023/04/03 00:56:51;;;;;;;6.30;1.20;;;11.80;99.90;;;;;;5050525;28;20037;-66
2023/04/03 00:59:25;;;;;;;8.75;1.20;;;11.90;99.90;;;;;;5050622;28;20029;-65
2023/04/03 01:01:55;;;;;;;6.35;1.35;;;11.90;99.90;;;;;;5032494;28;20380;-65
2023/04/03 01:04:42;;;;;;;5.38;1.00;;;11.90;99.90;;;;;;5050446;28;20025;-66
2023/04/03 01:07:13;;;;;;;5.57;1.00;;;11.80;99.90;;;;;;5050921;28;20116;-66
2023/04/03 01:09:40;;;;;;;5.43;1.10;;;11.80;99.90;;;;;;5050697;28;20048;-65
2023/04/03 01:12:29;;;;;;;9.82;1.42;;;11.90;99.90;;;;;;5050112;28;20053;-66
2023/04/03 01:14:59;;;;;;;4.38;0.70;;;11.90;99.90;;;;;;5049940;28;20033;-64
2023/04/03 01:17:30;;;;;;;9.90;0.90;;;11.90;99.90;;;;;;5032091;28;20025;-66
2023/04/03 01:20:21;;;;;;;8.38;1.10;;;11.90;99.90;;;;;;5051120;28;20354;-65
2023/04/03 01:23:19;;;;;;;4.63;1.10;;;11.90;99.90;;;;;;5050492;28;20025;-66
2023/04/03 01:25:54;;;;;;;5.10;0.82;;;11.90;99.90;;;;;;5030223;28;20483;-66
2023/04/03 01:28:32;;;;;;;10.07;0.90;;;11.90;99.90;;;;;;5050624;28;20070;-66
2023/04/03 01:31:24;;;;;;;7.57;1.20;;;12.00;99.90;;;;;;5050364;28;20033;-66
2023/04/03 01:33:51;;;;;;;5.13;0.70;;;12.00;99.90;;;;;;5032334;28;20124;-66
2023/04/03 01:36:25;;;;;;;7.78;1.33;;;12.00;99.90;;;;;;5050169;28;20048;-66
2023/04/03 01:38:54;;;;;;;6.97;1.10;;;12.00;99.90;;;;;;5050317;28;20070;-65
2023/04/03 01:41:21;;;;;;;7.47;1.30;;;11.90;99.90;;;;;;5050292;28;20025;-66
2023/04/03 01:43:48;;;;;;;9.45;1.08;;;11.80;99.90;;;;;;5032426;28;20029;-65
2023/04/03 01:46:19;;;;;;;6.40;1.10;;;11.60;99.90;;;;;;5050376;28;20340;-66
2023/04/03 01:48:45;;;;;;;8.82;1.17;;;11.50;99.90;;;;;;5050352;28;20017;-66
2023/04/03 01:51:12;;;;;;;7.68;1.02;;;11.70;99.90;;;;;;5050740;28;20033;-67
2023/04/03 01:53:42;;;;;;;8.95;1.25;;;11.80;99.90;;;;;;5054094;28;20025;-66
2023/04/03 01:56:08;;;;;;;6.70;1.02;;;11.80;99.90;;;;;;5054100;28;20457;-66
2023/04/03 01:58:36;;;;;;;5.53;1.53;;;11.70;99.90;;;;;;5053796;28;20354;-65
2023/04/03 02:01:03;;;;;;;10.38;1.08;;;11.70;99.90;;;;;;5053888;28;20275;-66
2023/04/03 02:03:32;;;;;;;7.93;1.00;;;11.50;99.90;;;;;;5053792;28;20033;-66
2023/04/03 02:06:05;;;;;;;6.68;1.02;;;11.30;99.90;;;;;;5053356;28;20029;-65
2023/04/03 02:08:32;;;;;;;4.65;0.93;;;11.20;99.90;;;;;;5053817;28;20024;-65
2023/04/03 02:10:58;;;;;;;3.83;1.00;;;11.10;99.90;;;;;;5053349;28;20056;-65
2023/04/03 02:13:25;;;;;;;4.63;1.13;;;10.90;99.90;;;;;;5053815;28;20029;-65
2023/04/03 02:15:55;;;;;;;4.70;0.70;;;10.80;99.90;;;;;;5053561;28;20370;-65
2023/04/03 02:18:21;;;;;;;5.13;0.95;;;10.80;99.90;;;;;;5034967;28;20354;-66
2023/04/03 02:20:48;;;;;;;2.17;0.68;;;10.90;99.90;;;;;;5053271;28;20124;-66
2023/04/03 02:23:15;;;;;;;5.57;0.98;;;10.80;99.90;;;;;;5053246;28;20098;-65
2023/04/03 02:25:41;;;;;;;6.60;0.93;;;10.60;99.90;;;;;;5053243;28;20061;-66
2023/04/03 02:28:07;;;;;;;4.80;0.70;;;10.50;99.90;;;;;;5052895;28;20114;-65
2023/04/03 02:30:33;;;;;;;3.28;0.80;;;10.50;99.90;;;;;;5052868;28;20044;-66
2023/04/03 02:32:59;;;;;;;4.55;0.82;;;10.60;99.90;;;;;;5052752;28;20032;-67
2023/04/03 02:35:25;;;;;;;6.40;0.80;;;10.60;99.90;;;;;;5053115;28;20021;-65
2023/04/03 02:37:51;;;;;;;7.85;0.98;;;10.60;99.90;;;;;;5052751;28;20268;-65
2023/04/03 02:40:17;;;;;;;7.57;1.27;;;10.40;99.90;;;;;;5052934;28;20452;-65
2023/04/03 02:42:45;;;;;;;4.10;1.00;;;10.40;99.90;;;;;;5052986;28;20051;-66
2023/04/03 02:45:11;;;;;;;6.65;1.27;;;10.20;99.90;;;;;;5034540;28;20099;-66
2023/04/03 02:47:37;;;;;;;5.63;1.57;;;10.10;99.90;;;;;;5052583;28;20048;-67
2023/04/03 02:50:03;;;;;;;2.67;1.05;;;10.10;99.90;;;;;;5052553;28;20068;-64
2023/04/03 02:52:29;;;;;;;4.10;0.90;;;10.00;99.90;;;;;;5052773;28;20021;-66
2023/04/03 02:54:56;;;;;;;3.58;0.80;;;10.00;99.90;;;;;;5052990;28;20429;-66
2023/04/03 02:57:24;;;;;;;2.60;0.88;;;10.00;99.90;;;;;;5052605;28;20187;-66
2023/04/03 02:59:51;;;;;;;5.75;0.98;;;9.90;99.90;;;;;;5051983;28;20445;-66
2023/04/03 03:02:17;;;;;;;9.07;1.05;;;9.90;99.90;;;;;;5051733;28;20033;-66
2023/04/03 03:04:45;;;;;;;5.37;0.90;;;10.00;99.90;;;;;;5051828;28;20025;-66
2023/04/03 03:07:11;;;;;;;3.92;1.17;;;10.00;99.90;;;;;;5052049;28;20029;-66
2023/04/03 03:09:37;;;;;;;5.43;1.20;;;10.10;99.90;;;;;;5052642;28;20453;-66
2023/04/03 03:12:03;;;;;;;9.13;1.27;;;10.20;99.90;;;;;;5052540;28;20084;-65
2023/04/03 03:14:29;;;;;;;3.25;0.80;;;10.10;99.90;;;;;;5052743;28;20480;-66
2023/04/03 03:16:55;;;;;;;4.22;0.88;;;10.10;99.90;;;;;;5034384;28;20037;-66
2023/04/03 03:19:21;;;;;;;5.53;0.95;;;9.90;99.90;;;;;;5052890;28;20032;-67
2023/04/03 03:21:47;;;;;;;2.47;1.08;;;9.90;99.90;;;;;;5052513;28;20024;-65
2023/04/03 03:24:13;;;;;;;6.93;1.03;;;9.90;99.90;;;;;;5035095;28;20025;-64
2023/04/03 03:26:40;;;;;;;3.33;0.90;;;9.90;99.90;;;;;;5052922;28;20260;-64
2023/04/03 03:29:06;;;;;;;3.67;0.73;;;9.90;99.90;;;;;;5053187;28;20380;-65
2023/04/03 03:31:32;;;;;;;4.85;1.10;;;9.80;99.90;;;;;;5034626;28;20508;-65
2023/04/03 03:33:58;;;;;;;5.00;1.10;;;9.80;99.90;;;;;;5052794;28;20071;-65
2023/04/03 03:36:25;;;;;;;4.93;0.90;;;9.80;99.90;;;;;;5052779;28;20400;-64
2023/04/03 03:38:51;;;;;;;;;;;9.80;99.90;;;;;;5035030;28;20029;-66
2023/04/03 03:41:17;;;;;;;4.57;1.20;;;9.80;99.90;;;;;;5052801;28;19904;-64
2023/04/03 03:43:46;;;;;;;3.33;0.75;;;9.90;99.90;;;;;;5052636;28;20025;-65
2023/04/03 03:46:12;;;;;;;5.63;1.10;;;9.90;99.90;;;;;;5053030;28;20021;-64
2023/04/03 03:48:39;;;;;;;3.75;1.02;;;9.90;99.90;;;;;;5052524;28;20036;-65
2023/04/03 03:51:06;;;;;;;4.18;0.93;;;9.80;99.90;;;;;;5035075;28;20044;-65
2023/04/03 03:53:32;;;;;;;4.28;1.08;;;9.90;99.90;;;;;;5052576;28;20072;-66
2023/04/03 03:55:58;;;;;;;4.80;0.85;;;9.90;99.90;;;;;;5052476;28;20493;-66
2023/04/03 03:58:24;;;;;;;6.28;1.08;;;9.70;99.90;;;;;;5052891;28;20025;-65
2023/04/03 04:00:50;;;;;;;5.60;1.10;;;9.70;99.90;;;;;;5052616;28;20086;-65
2023/04/03 04:03:17;;;;;;;8.02;1.15;;;9.60;99.90;;;;;;5034323;28;20025;-65
2023/04/03 04:05:44;;;;;;;4.05;0.90;;;9.50;99.90;;;;;;5052240;28;20151;-67
2023/04/03 04:08:10;;;;;;;9.05;1.10;;;9.60;99.90;;;;;;5051945;28;20068;-65
2023/04/03 04:10:38;;;;;;;11.82;1.40;;;9.60;99.90;;;;;;5052202;28;20036;-66
2023/04/03 04:13:05;;;;;;;5.43;1.10;;;9.70;99.90;;;;;;5051987;28;20045;-66
2023/04/03 04:15:31;;;;;;;3.42;0.80;;;9.80;99.90;;;;;;5051962;28;20109;-66
2023/04/03 04:17:57;;;;;;;4.22;0.90;;;9.80;99.90;;;;;;5052042;28;20144;-65
2023/04/03 04:20:23;;;;;;;7.03;1.05;;;9.80;99.90;;;;;;5052343;28;20098;-67
2023/04/03 04:22:49;;;;;;;4.67;0.90;;;9.80;99.90;;;;;;5051980;28;20103;-67
2023/04/03 04:25:17;;;;;;;7.07;1.40;;;9.70;99.90;;;;;;5052231;28;20404;-66
2023/04/03 04:27:43;;;;;;;4.60;0.88;;;9.80;99.90;;;;;;5052463;28;20457;-65
2023/04/03 04:30:12;;;;;;;3.63;0.90;;;9.90;99.90;;;;;;5052248;28;20086;-66
2023/04/03 04:32:38;;;;;;;4.78;0.93;;;9.80;99.90;;;;;;5052160;28;20041;-65
2023/04/03 04:35:05;;;;;;;4.68;0.90;;;9.90;99.90;;;;;;5052410;28;20452;-66
2023/04/03 04:37:31;;;;;;;;;;;9.90;99.90;;;;;;5053071;28;20147;-65
2023/04/03 04:39:57;;;;;;;4.57;1.20;;;9.90;99.90;;;;;;5052317;28;20363;-66
2023/04/03 04:42:23;;;;;;;4.97;1.00;;;9.90;99.90;;;;;;5052588;28;20096;-66
2023/04/03 04:44:50;;;;;;;4.20;1.00;;;9.80;99.90;;;;;;5052274;28;20017;-67
2023/04/03 04:47:16;;;;;;;6.80;1.00;;;9.70;99.90;;;;;;5034050;28;20086;-67
2023/04/03 04:49:42;;;;;;;1.57;0.80;;;9.70;99.90;;;;;;5052554;28;20207;-67
2023/04/03 04:52:08;;;;;;;6.67;1.50;;;9.80;99.90;;;;;;5052439;28;20484;-68
2023/04/03 04:54:34;;;;;;;7.93;0.90;;;9.70;99.90;;;;;;5051908;28;20563;-64
2023/04/03 04:57:00;;;;;;;4.13;1.10;;;9.60;99.90;;;;;;5052312;28;20040;-65
2023/04/03 04:59:27;;;;;;;7.10;0.90;;;9.60;99.90;;;;;;5033980;28;20028;-65
2023/04/03 05:01:53;;;;;;;2.72;0.80;;;9.70;99.90;;;;;;5052481;28;20033;-66
2023/04/03 05:04:19;;;;;;;4.72;1.40;;;9.70;99.90;;;;;;5034469;28;20507;-66
2023/04/03 05:06:46;;;;;;;3.40;1.00;;;9.70;99.90;;;;;;5051635;28;20037;-65
2023/04/03 05:09:12;;;;;;;4.40;1.05;;;9.60;99.90;;;;;;5051593;28;20256;-68
2023/04/03 05:11:38;;;;;;;3.20;1.00;;;9.60;99.90;;;;;;5051093;28;20092;-65
2023/04/03 05:14:06;;;;;;;5.43;1.08;;;9.50;99.90;;;;;;5051652;28;20103;-66
2023/04/03 05:16:33;;;;;;;3.15;1.05;;;9.50;99.90;;;;;;5052232;28;20415;-66
2023/04/03 05:18:59;;;;;;;3.75;1.30;;;9.40;99.90;;;;;;5052283;28;20029;-67
2023/04/03 05:21:27;;;;;;;5.72;1.20;;;9.40;99.90;;;;;;5052788;28;20025;-67
2023/04/03 05:23:53;;;;;;;4.68;1.00;;;9.50;99.90;;;;;;5051848;28;20033;-66
2023/04/03 05:26:20;;;;;;;5.93;1.17;;;9.70;99.90;;;;;;5053682;28;20024;-66
2023/04/03 05:28:46;;;;;;;;;;;9.70;99.90;;;;;;5056125;28;20056;-65
2023/04/03 05:31:13;;;;;;;4.50;1.37;;;9.70;99.90;;;;;;5054854;28;20029;-66
2023/04/03 05:33:40;;;;;;;3.92;0.90;;;9.80;99.90;;;;;;5054845;28;20354;-67
2023/04/03 05:36:07;;;;;;;3.38;1.33;;;9.80;99.90;;;;;;5055317;28;20021;-67
2023/04/03 05:38:33;;;;;;;3.60;1.48;;;9.70;99.90;;;;;;5055663;28;20384;-66
2023/04/03 05:41:00;;;;;;;5.93;1.20;;;9.90;99.90;;;;;;5055518;28;20025;-67
2023/04/03 05:43:26;;;;;;;9.07;1.75;;;10.20;99.90;;;;;;5037156;28;20431;-66
2023/04/03 05:45:52;;;;;;;10.38;1.10;;;10.50;99.90;;;;;;5055432;28;20534;-67
2023/04/03 05:48:18;;;;;;;3.63;1.13;;;10.70;99.90;;;;;;5054786;28;20029;-66
2023/04/03 05:50:45;;;;;;;9.30;1.17;;;10.80;99.90;;;;;;5055130;28;20037;-67
2023/04/03 05:53:22;;;;;;;3.25;0.98;;;11.00;99.90;;;;;;5054992;28;20089;-66
2023/04/03 05:55:48;;;;;;;6.53;1.00;;;11.20;99.90;;;;;;5054643;28;20477;-68
2023/04/03 05:58:14;;;;;;;5.27;1.60;;;11.30;99.90;;;;;;5054530;28;20425;-67
2023/04/03 06:00:42;;;;;;;6.55;0.90;;;11.50;99.90;;;;;;5054804;28;20029;-66
2023/04/03 06:03:08;;;;;;;5.40;1.33;;;11.70;99.90;;;;;;5054558;28;20100;-67
2023/04/03 06:05:34;;;;;;;3.10;1.10;;;12.10;99.90;;;;;;5054654;28;20126;-66
2023/04/03 06:08:01;;;;;;;4.10;1.00;;;12.70;99.90;;;;;;5054727;28;20025;-67
2023/04/03 06:10:27;;;;;;;13.10;1.52;;;12.80;99.90;;;;;;5054093;28;20041;-68
2023/04/03 06:12:54;;;;;;;6.77;1.10;;;13.00;99.90;;;;;;5054475;28;20108;-65
2023/04/03 06:15:26;;;;;;;6.25;1.33;;;12.50;99.90;;;;;;5054155;28;20096;-67
2023/04/03 06:17:52;;;;;;;5.80;1.05;;;12.20;99.90;;;;;;5054382;28;20017;-66
2023/04/03 06:20:18;;;;;;;12.57;1.40;;;12.40;99.90;;;;;;5036223;28;20052;-66
2023/04/03 06:22:44;;;;;;;5.55;1.35;;;13.10;99.90;;;;;;5054400;28;20100;-66
2023/04/03 06:25:10;;;;;;;6.47;1.25;;;13.70;99.90;;;;;;5053841;28;20025;-67
2023/04/03 06:27:37;;;;;;;6.32;1.05;;;13.90;99.90;;;;;;5054159;28;20101;-67
2023/04/03 06:30:03;;;;;;;4.80;1.13;;;15.50;99.90;;;;;;5054057;28;20112;-69
2023/04/03 06:32:30;;;;;;;10.65;1.25;;;17.10;99.90;;;;;;5053882;28;20057;-67
2023/04/03 06:34:57;;;;;;;5.07;0.95;;;19.20;99.90;;;;;;5054424;28;20029;-68
2023/04/03 06:37:25;;;;;;;7.72;1.52;;;20.20;99.90;;;;;;5053640;28;20033;-68
2023/04/03 06:39:53;;;;;;;5.63;0.95;;;20.40;99.90;;;;;;5053844;28;20445;-69
2023/04/03 06:42:19;;;;;;;2.60;0.80;;;19.30;99.90;;;;;;5053853;28;20033;-70
2023/04/03 06:44:45;;;;;;;2.25;0.60;;;18.60;99.90;;;;;;5054581;28;20074;-69
2023/04/03 06:47:13;;;;;;;6.07;0.80;;;18.30;99.90;;;;;;5053834;28;20024;-70
2023/04/03 06:49:39;;;;;;;4.82;1.00;;;18.70;99.90;;;;;;5053980;28;20055;-68
2023/04/03 06:52:07;;;;;;;3.17;1.08;;;19.00;99.90;;;;;;5053810;28;20166;-67
2023/04/03 06:54:34;;;;;;;4.47;1.02;;;19.30;99.90;;;;;;5053653;28;20029;-68
2023/04/03 06:57:01;;;;;;;31.38;2.70;;;19.70;99.90;;;;;;5053621;28;20075;-69
2023/04/03 06:59:28;;;;;;;2.92;0.80;;;20.90;99.90;;;;;;5054016;28;20028;-69
2023/04/03 07:01:54;;;;;;;2.28;0.73;;;20.60;99.90;;;;;;5053460;28;20025;-70
2023/04/03 07:04:20;;;;;;;4.25;1.00;;;21.80;99.90;;;;;;5054013;28;20485;-75
2023/04/03 07:06:48;;;;;;;2.03;0.80;;;20.90;99.90;;;;;;5053329;28;20063;-69
2023/04/03 07:09:15;;;;;;;2.25;0.70;;;21.60;99.90;;;;;;5053736;28;20034;-68
2023/04/03 07:11:41;;;;;;;5.28;1.00;;;21.80;99.90;;;;;;5053263;28;20401;-68
2023/04/03 07:14:07;;;;;;;4.30;1.10;;;21.30;99.90;;;;;;5053350;28;20021;-68
2023/04/03 07:16:35;;;;;;;3.95;1.00;;;20.10;99.90;;;;;;5053356;28;20139;-66
2023/04/03 07:19:01;;;;;;;4.80;0.95;;;19.30;99.90;;;;;;5053158;28;20449;-69
2023/04/03 07:21:27;;;;;;;5.70;1.35;;;19.00;99.90;;;;;;5053228;28;20029;-69
2023/04/03 07:23:54;;;;;;;2.35;0.98;;;17.10;99.90;;;;;;5053421;28;20021;-67
2023/04/03 07:26:22;;;;;;;7.15;1.10;;;17.20;99.90;;;;;;5053405;28;20120;-69
2023/04/03 07:28:48;;;;;;;3.70;1.00;;;18.00;99.90;;;;;;5053093;28;20028;-68
2023/04/03 07:31:16;;;;;;;2.35;1.00;;;19.20;99.90;;;;;;5053195;28;20368;-69
2023/04/03 07:33:44;;;;;;;4.80;1.23;;;18.10;99.90;;;;;;5052914;28;20029;-69
2023/04/03 07:36:14;;;;;;;11.90;1.20;;;18.30;99.90;;;;;;5035015;28;20021;-68
2023/04/03 07:38:41;;;;;;;3.72;1.20;;;18.40;99.90;;;;;;5052736;28;20127;-69
2023/04/03 07:41:10;;;;;;;3.83;1.02;;;18.70;99.90;;;;;;5053234;28;20017;-68
2023/04/03 07:43:37;;;;;;;6.93;1.15;;;18.50;99.90;;;;;;5052840;28;20036;-69
2023/04/03 07:46:05;;;;;;;3.55;0.70;;;18.60;99.90;;;;;;5052792;28;20020;-68
2023/04/03 07:48:31;;;;;;;3.30;0.77;;;18.30;99.90;;;;;;5052170;28;20432;-69
2023/04/03 07:51:01;;;;;;;7.53;1.48;;;18.50;99.90;;;;;;5051902;28;20041;-70
2023/04/03 07:53:28;;;;;;;3.65;0.95;;;18.70;99.90;;;;;;5052556;28;20154;-69
2023/04/03 07:55:56;;;;;;;4.32;0.88;;;18.30;99.90;;;;;;5051878;28;20029;-68
2023/04/03 07:58:22;;;;;;;6.47;0.82;;;18.70;99.90;;;;;;5034063;28;20046;-70
2023/04/03 08:00:49;;;;;;;2.75;1.05;;;18.20;99.90;;;;;;5052667;28;20469;-69
2023/04/03 08:03:18;;;;;;;2.42;0.90;;;18.70;99.90;;;;;;5052189;28;20021;-70
2023/04/03 08:05:46;;;;;;;2.75;1.17;;;18.70;99.90;;;;;;5052332;28;20033;-70
2023/04/03 08:08:16;;;;;;;2.33;0.65;;;18.70;99.90;;;;;;5051762;28;20048;-70
2023/04/03 08:10:42;;;;;;;4.63;0.70;;;18.40;99.90;;;;;;5051548;28;20041;-70
2023/04/03 08:13:10;;;;;;;2.03;0.70;;;18.20;99.90;;;;;;5052031;28;20033;-69
2023/04/03 08:15:36;;;;;;;1.23;0.60;;;17.90;99.90;;;;;;5051818;28;20075;-68
2023/04/03 08:18:03;;;;;;;2.63;0.60;;;18.00;99.90;;;;;;5033750;28;20070;-69
2023/04/03 08:20:30;;;;;;;3.65;0.73;;;18.00;99.90;;;;;;5052474;28;20032;-68
2023/04/03 08:22:56;;;;;;;3.72;0.60;;;18.40;99.90;;;;;;5052494;28;20025;-70
2023/04/03 08:25:23;;;;;;;1.13;0.52;;;17.60;99.90;;;;;;5052199;28;20036;-70
2023/04/03 08:27:49;;;;;;;1.08;0.45;;;17.70;99.90;;;;;;5052437;28;20031;-70
2023/04/03 08:30:15;;;;;;;0.88;0.40;;;16.70;99.90;;;;;;5017415;28;20033;-69
2023/04/03 08:32:44;;;;;;;3.20;0.40;;;17.30;99.90;;;;;;5052054;28;20052;-70
2023/04/03 08:35:11;;;;;;;4.47;0.60;;;17.10;99.90;;;;;;5051952;28;20027;-69
2023/04/03 08:37:38;;;;;;;1.13;0.50;;;16.90;99.90;;;;;;5033771;28;20033;-69
2023/04/03 08:40:06;;;;;;;4.00;0.40;;;16.60;99.90;;;;;;5052000;28;20082;-69
2023/04/03 08:42:52;;;;;;;1.48;0.40;;;16.10;99.90;;;;;;5051951;28;20409;-68
2023/04/03 08:45:58;;;;;;;1.52;0.45;;;16.10;99.90;;;;;;5051292;28;20032;-70
2023/04/03 08:48:29;;;;;;;3.78;0.50;;;15.50;99.90;;;;;;5050864;28;20433;-68
2023/04/03 08:51:02;;;;;;;1.50;0.57;;;15.40;99.90;;;;;;5051754;28;20045;-67
2023/04/03 08:53:33;;;;;;;1.75;0.50;;;15.60;99.90;;;;;;5051700;28;20215;-69
2023/04/03 08:56:04;;;;;;;1.38;0.50;;;15.60;99.90;;;;;;5051677;28;20029;-68
2023/04/03 08:58:41;;;;;;;1.02;0.40;;;15.10;99.90;;;;;;5051867;28;20515;-69
2023/04/03 09:01:16;;;;;;;;;;;15.30;99.90;;;;;;5052568;28;20085;-69
2023/04/03 09:03:43;;;;;;;3.87;0.53;;;15.40;99.90;;;;;;5037448;28;19911;-69
2023/04/03 09:06:21;;;;;;;0.40;0.30;;;15.40;99.90;;;;;;5055420;28;20062;-65
2023/04/03 09:09:10;;;;;;;1.92;0.50;;;15.10;99.90;;;;;;5055860;28;20381;-69
2023/04/03 09:12:01;;;;;;;1.23;0.60;;;15.50;99.90;;;;;;5055242;28;20080;-69
2023/04/03 09:14:41;;;;;;;4.95;0.60;;;15.20;99.90;;;;;;5037155;28;20060;-67
2023/04/03 09:17:43;;;;;;;2.33;0.50;;;15.10;99.90;;;;;;5055452;28;20056;-70
2023/04/03 09:20:26;;;;;;;1.17;0.50;;;15.40;99.90;;;;;;5055595;28;20033;-69
2023/04/03 09:22:54;;;;;;;3.53;0.57;;;15.40;99.90;;;;;;5055647;28;20099;-70
2023/04/03 09:25:26;;;;;;;0.98;0.55;;;15.50;99.90;;;;;;5055106;28;20493;-69
2023/04/03 09:27:53;;;;;;;3.03;0.80;;;15.20;99.90;;;;;;5036959;28;20021;-71
2023/04/03 09:30:23;;;;;;;3.63;0.63;;;15.20;99.90;;;;;;5055057;28;20033;-69
2023/04/03 09:32:52;;;;;;;4.40;0.60;;;15.60;99.90;;;;;;5054805;28;20028;-70
2023/04/03 09:35:33;;;;;;;2.25;0.60;;;15.60;99.90;;;;;;5054982;28;20017;-65
2023/04/03 09:38:22;;;;;;;1.27;0.50;;;15.30;99.90;;;;;;5055448;28;20036;-69
2023/04/03 09:41:06;;;;;;;1.42;0.50;;;15.20;99.90;;;;;;5036797;28;20032;-70
2023/04/03 09:43:34;;;;;;;2.95;0.60;;;15.40;99.90;;;;;;5036761;28;20025;-68
2023/04/03 09:46:23;;;;;;;1.15;0.50;;;15.60;99.90;;;;;;5054968;28;20025;-70
2023/04/03 09:49:05;;;;;;;1.13;0.50;;;15.30;99.90;;;;;;5030308;28;20043;-70
2023/04/03 09:51:32;;;;;;;1.45;0.57;;;15.40;99.90;;;;;;5054837;28;20033;-71
2023/04/03 09:53:58;;;;;;;4.38;1.00;;;15.40;99.90;;;;;;5054657;28;20025;-70
2023/04/03 09:56:28;;;;;;;0.80;0.40;;;15.70;99.90;;;;;;5054686;28;20048;-69
2023/04/03 09:59:05;;;;;;;3.15;0.80;;;15.80;99.90;;;;;;5054614;28;20029;-70
2023/04/03 10:01:36;;;;;;;0.60;0.35;;;16.20;99.90;;;;;;5055091;28;20059;-70
2023/04/03 10:04:07;;;;;;;1.67;0.47;;;16.40;99.90;;;;;;5054284;28;20036;-70
2023/04/03 10:06:40;;;;;;;2.25;0.70;;;16.50;99.90;;;;;;5054445;28;20032;-67
2023/04/03 10:09:25;;;;;;;2.83;0.90;;;16.60;99.90;;;;;;5054952;28;20365;-68
2023/04/03 10:12:14;;;;;;;0.98;0.47;;;16.90;99.90;;;;;;5035675;28;20157;-70
2023/04/03 10:14:55;;;;;;;1.88;0.60;;;16.90;99.90;;;;;;5054789;28;20036;-69
2023/04/03 10:17:21;;;;;;;1.33;0.50;;;16.70;99.90;;;;;;5054637;28;20100;-69
2023/04/03 10:20:08;;;;;;;0.70;0.50;;;16.90;99.90;;;;;;5054397;28;20072;-69
2023/04/03 10:23:11;;;;;;;1.40;0.63;;;16.70;99.90;;;;;;5054878;28;20729;-65
2023/04/03 10:25:54;;;;;;;1.45;0.70;;;16.80;99.90;;;;;;5054232;28;20460;-70
2023/04/03 10:28:32;;;;;;;1.65;0.70;;;16.90;99.90;;;;;;5054890;28;20071;-71
2023/04/03 10:31:21;;;;;;;1.52;0.63;;;16.90;99.90;;;;;;5054542;28;20124;-69
2023/04/03 10:34:13;;;;;;;0.82;0.30;;;16.70;99.90;;;;;;5036255;28;20029;-69
2023/04/03 10:36:45;;;;;;;2.55;0.65;;;16.60;99.90;;;;;;5036358;28;20077;-70
2023/04/03 10:39:36;;;;;;;1.60;0.60;;;16.70;99.90;;;;;;5054050;28;20511;-70
2023/04/03 10:42:32;;;;;;;1.90;0.70;;;16.70;99.90;;;;;;5054020;28;20025;-71
2023/04/03 10:45:23;;;;;;;2.90;0.73;;;16.90;99.90;;;;;;5054073;28;20052;-69
2023/04/03 10:47:59;;;;;;;3.50;1.27;;;16.60;99.90;;;;;;5053977;28;20025;-69
2023/04/03 10:50:34;;;;;;;;;;;16.60;99.90;;;;;;5054344;28;20354;-69
2023/04/03 10:53:07;;;;;;;3.80;0.95;;;16.70;99.90;;;;;;5054011;28;19905;-69
2023/04/03 10:56:07;;;;;;;4.78;1.10;;;16.70;99.90;;;;;;5053488;28;20354;-69
2023/04/03 10:58:39;;;;;;;4.55;1.02;;;16.60;99.90;;;;;;5053876;28;20082;-70
2023/04/03 11:01:17;;;;;;;4.07;1.10;;;16.80;99.90;;;;;;5053841;28;20029;-70
2023/04/03 11:03:53;;;;;;;3.35;0.90;;;16.80;99.90;;;;;;5053448;28;20033;-70
2023/04/03 11:06:23;;;;;;;3.03;1.37;;;16.70;99.90;;;;;;5053612;28;20389;-68
2023/04/03 11:08:56;;;;;;;3.40;1.05;;;16.80;99.90;;;;;;5053427;28;20032;-68
2023/04/03 11:11:32;;;;;;;3.25;1.23;;;16.70;99.90;;;;;;5053165;28;20124;-69
2023/04/03 11:14:03;;;;;;;6.55;1.10;;;16.30;99.90;;;;;;5053442;28;20056;-69
2023/04/03 11:16:33;;;;;;;6.95;1.30;;;16.20;99.90;;;;;;5053924;28;20029;-70
2023/04/03 11:19:04;;;;;;;3.85;1.13;;;16.70;99.90;;;;;;5053453;28;20021;-71
2023/04/03 11:21:46;;;;;;;4.22;1.10;;;16.70;99.90;;;;;;5053415;28;20144;-70
2023/04/03 11:24:28;;;;;;;6.40;1.17;;;17.10;99.90;;;;;;5052097;28;20029;-70
2023/04/03 11:26:56;;;;;;;5.93;1.40;;;17.60;99.90;;;;;;5053103;28;20207;-69
2023/04/03 11:29:42;;;;;;;5.38;1.38;;;17.60;99.90;;;;;;5053148;28;20032;-69
2023/04/03 11:32:29;;;;;;;5.38;1.35;;;16.90;99.90;;;;;;5052859;28;20029;-69
2023/04/03 11:34:59;;;;;;;4.80;1.00;;;17.50;99.90;;;;;;5053185;28;20076;-71
2023/04/03 11:37:38;;;;;;;6.53;1.38;;;17.60;99.90;;;;;;5052948;28;20025;-70
2023/04/03 11:40:17;;;;;;;3.10;1.00;;;17.90;99.90;;;;;;5053058;28;20424;-69
2023/04/03 11:42:54;;;;;;;5.40;1.20;;;18.00;99.90;;;;;;5052918;28;20021;-70
2023/04/03 11:45:26;;;;;;;4.78;1.42;;;18.30;99.90;;;;;;5052842;28;20025;-72
2023/04/03 11:48:01;;;;;;;6.70;1.60;;;18.20;99.90;;;;;;5052439;28;20380;-71
2023/04/03 11:50:36;;;;;;;7.22;1.50;;;18.30;99.90;;;;;;5052620;28;20041;-70
2023/04/03 11:53:11;;;;;;;6.55;1.33;;;17.90;99.90;;;;;;5052901;28;20028;-71
2023/04/03 11:55:54;;;;;;;6.72;1.65;;;17.30;99.90;;;;;;5053049;28;20025;-71
2023/04/03 11:58:24;;;;;;;8.88;1.15;;;17.10;99.90;;;;;;5053260;28;20028;-70
2023/04/03 12:00:52;;;;;;;6.10;1.50;;;17.70;99.90;;;;;;5053018;28;20032;-69
2023/04/03 12:06:05;;;;;;;4.70;1.35;;;17.50;99.90;;;;;;5052904;28;20029;-70
2023/04/03 12:08:34;;;;;;;4.32;1.23;;;17.30;99.90;;;;;;5053048;28;20481;-70
2023/04/03 12:11:09;;;;;;;6.10;1.17;;;17.80;99.90;;;;;;5053057;28;20109;-70
2023/04/03 12:13:41;;;;;;;3.22;1.17;;;17.90;99.90;;;;;;5052857;28;20041;-64
2023/04/03 12:16:26;;;;;;;5.78;1.05;;;17.60;99.90;;;;;;5053418;28;20035;-70
2023/04/03 12:18:52;;;;;;;3.28;1.00;;;17.50;99.90;;;;;;5052884;28;20442;-71
2023/04/03 12:21:23;;;;;;;7.50;1.70;;;17.60;99.90;;;;;;5053050;28;20052;-66
2023/04/03 12:24:07;;;;;;;6.88;1.00;;;17.90;99.90;;;;;;5053522;28;20013;-69
2023/04/03 12:26:50;;;;;;;4.13;1.00;;;17.60;99.90;;;;;;5033755;28;20369;-69
2023/04/03 12:29:30;;;;;;;1.38;0.65;;;17.10;99.90;;;;;;5053085;28;20459;-70
2023/04/03 12:32:34;;;;;;;2.88;0.98;;;16.60;99.90;;;;;;5053366;28;20064;-67
2023/04/03 12:35:18;;;;;;;3.17;1.10;;;16.50;99.90;;;;;;5052674;28;20029;-70
2023/04/03 12:38:05;;;;;;;3.53;1.00;;;16.00;99.90;;;;;;5053071;28;20048;-70
2023/04/03 12:40:53;;;;;;;4.25;1.13;;;16.00;99.90;;;;;;5053294;28;20028;-69
2023/04/03 12:43:40;;;;;;;5.20;0.98;;;15.90;99.90;;;;;;5034760;28;20033;-71
2023/04/03 12:46:15;;;;;;;2.90;0.90;;;15.70;99.90;;;;;;5052739;28;20024;-69
2023/04/03 12:48:45;;;;;;;1.98;0.80;;;15.50;99.90;;;;;;5034590;28;20107;-71
2023/04/03 12:51:41;;;;;;;4.82;1.00;;;15.20;99.90;;;;;;5034490;28;20106;-69
2023/04/03 12:54:31;;;;;;;2.60;0.70;;;15.10;99.90;;;;;;5052507;28;20025;-69
2023/04/03 12:57:11;;;;;;;2.55;1.20;;;15.50;99.90;;;;;;5052332;28;20025;-70
2023/04/03 12:59:38;;;;;;;3.80;0.90;;;15.60;99.90;;;;;;5052728;28;20028;-70
2023/04/03 13:02:10;;;;;;;;;;;15.50;99.90;;;;;;5052491;28;20108;-69
2023/04/03 13:04:39;;;;;;;4.20;0.93;;;15.50;99.90;;;;;;5052055;28;19936;-69
2023/04/03 13:07:05;;;;;;;2.50;1.00;;;15.50;99.90;;;;;;5052610;28;20044;-69
2023/04/03 13:09:32;;;;;;;4.93;1.80;;;15.20;99.90;;;;;;5052269;28;20539;-72
2023/04/03 13:12:12;;;;;;;4.72;0.95;;;14.90;99.90;;;;;;5052346;28;20191;-69